Gilbert, Louisiana
Current Conditions -  °F | °C
As of 4:35 PM on Tuesday 21 Oct 2014 (Local Time) from KHEZ Reporting Station
Clear Clear  
Wind Chill: 75°   Ceiling: Unl
Heat Index: 75°   Visibility: 10mi
Dew Point: 57°   Wind: 8mph
Humidity: 53%   Direction: 360°N
Pressure: 30.02"   Gusts: NA
Location:  32.05°N, 91.66°W
Report Text: KHEZ 212135Z AUTO 36007KT 10SM CLR 24/14 A3002 RMK AO1
Loading
Personal Weather Stations






























Interactive Weather Map New forecast layout! Learn more

10-Day Weather Forecast

Advertisements
Track Severe Weather on mobile